sensor_id;sensor_type;location;lat;lon;timestamp;pressure;altitude;pressure_sealevel;temperature;humidity
50770;BME280;36740;48.698;11.472;2024-03-22T00:00:32;98056.47;;;10.92;69.59
50770;BME280;36740;48.698;11.472;2024-03-22T00:03:18;97958.69;;;10.22;70.01
50770;BME280;36740;48.698;11.472;2024-03-22T00:06:05;97977.97;;;10.38;69.53
50770;BME280;36740;48.698;11.472;2024-03-22T00:09:00;97982.53;;;10.55;69.52
50770;BME280;36740;48.698;11.472;2024-03-22T00:15:33;97956.09;;;10.33;68.84
50770;BME280;36740;48.698;11.472;2024-03-22T00:18:18;98017.81;;;10.63;69.44
50770;BME280;36740;48.698;11.472;2024-03-22T00:25:20;97944.53;;;9.08;74.35
50770;BME280;36740;48.698;11.472;2024-03-22T00:35:58;97973.19;;;10.12;72.82
50770;BME280;36740;48.698;11.472;2024-03-22T00:39:05;97948.03;;;9.07;75.64
50770;BME280;36740;48.698;11.472;2024-03-22T00:45:28;97957.31;;;8.85;79.91
50770;BME280;36740;48.698;11.472;2024-03-22T00:48:37;97929.28;;;8.50;80.49
50770;BME280;36740;48.698;11.472;2024-03-22T00:52:05;98051.41;;;9.38;80.42
50770;BME280;36740;48.698;11.472;2024-03-22T00:58:47;97988.72;;;9.55;77.05
50770;BME280;36740;48.698;11.472;2024-03-22T01:08:55;97942.19;;;9.83;75.56
50770;BME280;36740;48.698;11.472;2024-03-22T01:16:17;97932.31;;;9.34;77.41
50770;BME280;36740;48.698;11.472;2024-03-22T01:30:20;97966.16;;;10.14;75.10
50770;BME280;36740;48.698;11.472;2024-03-22T01:41:25;97906.34;;;9.83;73.91
50770;BME280;36740;48.698;11.472;2024-03-22T01:44:27;97907.56;;;10.21;72.14
50770;BME280;36740;48.698;11.472;2024-03-22T01:48:26;97877.72;;;9.45;74.84
50770;BME280;36740;48.698;11.472;2024-03-22T01:51:39;97986.50;;;9.94;74.48
50770;BME280;36740;48.698;11.472;2024-03-22T01:54:26;97869.41;;;8.41;77.84
50770;BME280;36740;48.698;11.472;2024-03-22T02:01:04;97997.25;;;9.88;77.42
50770;BME280;36740;48.698;11.472;2024-03-22T02:04:26;97877.13;;;8.53;78.00
50770;BME280;36740;48.698;11.472;2024-03-22T02:07:17;97899.00;;;8.68;79.80
50770;BME280;36740;48.698;11.472;2024-03-22T02:13:38;97870.84;;;8.91;76.93
50770;BME280;36740;48.698;11.472;2024-03-22T02:16:44;97947.47;;;9.58;75.73
50770;BME280;36740;48.698;11.472;2024-03-22T02:24:06;97964.59;;;8.21;79.63
50770;BME280;36740;48.698;11.472;2024-03-22T02:30:43;97874.31;;;6.25;88.48
50770;BME280;36740;48.698;11.472;2024-03-22T02:33:37;97941.25;;;6.66;90.99
50770;BME280;36740;48.698;11.472;2024-03-22T02:36:23;97927.16;;;7.12;90.00
50770;BME280;36740;48.698;11.472;2024-03-22T02:39:30;97939.69;;;7.52;88.75
50770;BME280;36740;48.698;11.472;2024-03-22T02:42:22;97945.78;;;9.48;83.57
50770;BME280;36740;48.698;11.472;2024-03-22T02:45:55;97861.13;;;9.28;77.74
50770;BME280;36740;48.698;11.472;2024-03-22T02:48:54;97877.66;;;8.34;77.12
50770;BME280;36740;48.698;11.472;2024-03-22T02:52:02;97867.59;;;7.37;81.36
50770;BME280;36740;48.698;11.472;2024-03-22T02:54:50;97966.94;;;10.05;77.47
50770;BME280;36740;48.698;11.472;2024-03-22T02:57:36;97912.22;;;8.15;78.74
50770;BME280;36740;48.698;11.472;2024-03-22T03:00:22;97941.13;;;8.16;80.28
50770;BME280;36740;48.698;11.472;2024-03-22T03:03:10;97848.69;;;7.64;79.65
50770;BME280;36740;48.698;11.472;2024-03-22T03:06:39;97945.25;;;7.94;80.96
50770;BME280;36740;48.698;11.472;2024-03-22T03:17:48;97838.38;;;7.17;83.13
50770;BME280;36740;48.698;11.472;2024-03-22T03:21:07;97913.84;;;8.85;83.02
50770;BME280;36740;48.698;11.472;2024-03-22T03:24:12;97844.81;;;9.94;71.85
50770;BME280;36740;48.698;11.472;2024-03-22T03:31:28;97778.75;;;6.20;72.23
50770;BME280;36740;48.698;11.472;2024-03-22T03:38:39;97817.75;;;4.73;85.19
50770;BME280;36740;48.698;11.472;2024-03-22T03:52:57;97841.53;;;8.16;79.85
50770;BME280;36740;48.698;11.472;2024-03-22T03:56:21;97833.19;;;8.36;75.74
50770;BME280;36740;48.698;11.472;2024-03-22T04:00:10;97809.25;;;8.37;74.53
50770;BME280;36740;48.698;11.472;2024-03-22T04:11:08;97793.59;;;8.42;72.46
50770;BME280;36740;48.698;11.472;2024-03-22T04:14:45;97880.38;;;8.43;73.67
50770;BME280;36740;48.698;11.472;2024-03-22T04:17:31;97783.38;;;8.30;72.19
50770;BME280;36740;48.698;11.472;2024-03-22T04:20:18;97839.25;;;8.80;71.98
50770;BME280;36740;48.698;11.472;2024-03-22T04:23:04;97823.56;;;8.40;73.59
50770;BME280;36740;48.698;11.472;2024-03-22T04:25:58;97838.56;;;8.44;75.06
50770;BME280;36740;48.698;11.472;2024-03-22T04:28:46;97839.97;;;8.60;75.32
50770;BME280;36740;48.698;11.472;2024-03-22T04:31:32;97850.59;;;8.42;75.54
50770;BME280;36740;48.698;11.472;2024-03-22T04:34:18;97846.91;;;7.53;80.35
50770;BME280;36740;48.698;11.472;2024-03-22T04:37:04;97866.00;;;8.18;79.67
50770;BME280;36740;48.698;11.472;2024-03-22T04:39:50;97803.69;;;8.21;76.26
50770;BME280;36740;48.698;11.472;2024-03-22T04:42:35;97839.38;;;8.56;74.54
50770;BME280;36740;48.698;11.472;2024-03-22T04:45:21;97796.81;;;8.33;73.24
50770;BME280;36740;48.698;11.472;2024-03-22T04:48:07;97783.59;;;8.27;72.97
50770;BME280;36740;48.698;11.472;2024-03-22T04:50:53;97829.66;;;8.03;75.96
50770;BME280;36740;48.698;11.472;2024-03-22T04:53:39;97839.31;;;8.11;76.11
50770;BME280;36740;48.698;11.472;2024-03-22T04:56:25;97870.88;;;8.68;74.47
50770;BME280;36740;48.698;11.472;2024-03-22T04:59:10;97845.06;;;8.60;73.36
50770;BME280;36740;48.698;11.472;2024-03-22T05:03:02;97791.28;;;8.50;71.69
50770;BME280;36740;48.698;11.472;2024-03-22T05:09:11;97789.50;;;8.39;72.74
50770;BME280;36740;48.698;11.472;2024-03-22T05:12:43;97822.50;;;8.31;71.28
50770;BME280;36740;48.698;11.472;2024-03-22T05:16:34;97774.38;;;7.80;72.27
50770;BME280;36740;48.698;11.472;2024-03-22T05:21:05;97785.72;;;7.64;74.63
50770;BME280;36740;48.698;11.472;2024-03-22T05:23:32;97855.53;;;8.68;71.60
50770;BME280;36740;48.698;11.472;2024-03-22T05:26:37;97822.53;;;8.65;70.84
50770;BME280;36740;48.698;11.472;2024-03-22T05:30:07;97790.72;;;8.46;70.12
50770;BME280;36740;48.698;11.472;2024-03-22T05:41:07;97885.13;;;9.04;71.49
50770;BME280;36740;48.698;11.472;2024-03-22T05:44:18;97855.41;;;8.47;72.64
50770;BME280;36740;48.698;11.472;2024-03-22T05:48:01;97811.06;;;8.48;72.80
50770;BME280;36740;48.698;11.472;2024-03-22T05:50:49;97809.72;;;8.08;73.97
50770;BME280;36740;48.698;11.472;2024-03-22T05:53:38;97810.91;;;8.38;74.83
50770;BME280;36740;48.698;11.472;2024-03-22T05:56:29;97772.97;;;7.87;74.67
50770;BME280;36740;48.698;11.472;2024-03-22T05:59:34;97878.16;;;8.95;74.86
50770;BME280;36740;48.698;11.472;2024-03-22T06:02:44;97850.13;;;10.85;66.67
50770;BME280;36740;48.698;11.472;2024-03-22T06:06:06;97789.84;;;11.69;61.84
50770;BME280;36740;48.698;11.472;2024-03-22T06:09:15;97805.13;;;12.65;58.12
50770;BME280;36740;48.698;11.472;2024-03-22T06:15:26;97746.34;;;14.12;51.76
50770;BME280;36740;48.698;11.472;2024-03-22T06:18:37;97769.56;;;15.39;49.88
50770;BME280;36740;48.698;11.472;2024-03-22T06:21:23;97797.31;;;16.19;48.16
50770;BME280;36740;48.698;11.472;2024-03-22T06:24:40;97777.69;;;16.72;46.95
50770;BME280;36740;48.698;11.472;2024-03-22T06:27:25;97836.84;;;17.69;45.31
50770;BME280;36740;48.698;11.472;2024-03-22T06:30:20;97816.13;;;18.22;44.15
50770;BME280;36740;48.698;11.472;2024-03-22T06:33:31;97787.63;;;18.59;42.71
50770;BME280;36740;48.698;11.472;2024-03-22T06:36:26;97825.34;;;18.70;42.68
50770;BME280;36740;48.698;11.472;2024-03-22T06:39:30;97802.84;;;18.62;42.80
50770;BME280;36740;48.698;11.472;2024-03-22T06:42:16;97747.13;;;17.60;43.64
50770;BME280;36740;48.698;11.472;2024-03-22T06:45:02;97711.69;;;14.15;50.33
50770;BME280;36740;48.698;11.472;2024-03-22T06:47:48;97711.88;;;12.35;56.09
50770;BME280;36740;48.698;11.472;2024-03-22T06:50:34;97760.81;;;12.06;59.52
50770;BME280;36740;48.698;11.472;2024-03-22T06:53:20;97807.81;;;11.78;62.47
50770;BME280;36740;48.698;11.472;2024-03-22T06:56:06;97811.16;;;11.89;62.82
50770;BME280;36740;48.698;11.472;2024-03-22T06:58:54;97822.69;;;11.75;63.81
50770;BME280;36740;48.698;11.472;2024-03-22T07:01:40;97803.72;;;11.86;63.76
50770;BME280;36740;48.698;11.472;2024-03-22T07:04:29;97822.69;;;11.65;65.10
50770;BME280;36740;48.698;11.472;2024-03-22T07:07:15;97831.19;;;12.42;63.18
50770;BME280;36740;48.698;11.472;2024-03-22T07:10:01;97843.81;;;13.47;60.32
50770;BME280;36740;48.698;11.472;2024-03-22T07:12:47;97822.16;;;14.01;57.99
50770;BME280;36740;48.698;11.472;2024-03-22T07:15:33;97796.03;;;12.88;59.23
50770;BME280;36740;48.698;11.472;2024-03-22T07:18:19;97802.50;;;11.90;64.18
50770;BME280;36740;48.698;11.472;2024-03-22T07:21:05;97811.25;;;12.16;65.63
50770;BME280;36740;48.698;11.472;2024-03-22T07:23:51;97807.09;;;12.43;64.21
50770;BME280;36740;48.698;11.472;2024-03-22T07:26:37;97811.63;;;12.69;64.01
50770;BME280;36740;48.698;11.472;2024-03-22T07:29:22;97803.78;;;11.47;67.11
50770;BME280;36740;48.698;11.472;2024-03-22T07:32:08;97814.16;;;12.41;66.16
50770;BME280;36740;48.698;11.472;2024-03-22T07:34:54;97816.63;;;12.88;64.84
50770;BME280;36740;48.698;11.472;2024-03-22T07:37:40;97733.28;;;12.26;64.96
50770;BME280;36740;48.698;11.472;2024-03-22T07:40:26;97799.41;;;13.17;63.87
50770;BME280;36740;48.698;11.472;2024-03-22T07:43:11;97733.91;;;13.19;62.35
50770;BME280;36740;48.698;11.472;2024-03-22T07:45:58;97812.09;;;14.16;60.83
50770;BME280;36740;48.698;11.472;2024-03-22T07:48:44;97804.38;;;14.16;60.26
50770;BME280;36740;48.698;11.472;2024-03-22T07:51:30;97742.16;;;13.59;61.32
50770;BME280;36740;48.698;11.472;2024-03-22T07:54:18;97735.31;;;14.02;59.88
50770;BME280;36740;48.698;11.472;2024-03-22T07:57:07;97782.06;;;13.37;61.87
50770;BME280;36740;48.698;11.472;2024-03-22T08:00:17;97723.75;;;13.80;59.53
50770;BME280;36740;48.698;11.472;2024-03-22T08:07:51;97792.31;;;15.02;58.52
50770;BME280;36740;48.698;11.472;2024-03-22T10:41:53;97724.91;;;16.50;57.71
50770;BME280;36740;48.698;11.472;2024-03-22T11:08:41;97685.34;;;19.18;50.46
50770;BME280;36740;48.698;11.472;2024-03-22T11:16:18;97563.19;;;19.18;47.54
50770;BME280;36740;48.698;11.472;2024-03-22T12:24:16;97461.94;;;22.34;38.96
50770;BME280;36740;48.698;11.472;2024-03-22T12:26:45;97426.91;;;21.60;39.77
50770;BME280;36740;48.698;11.472;2024-03-22T12:29:12;97386.00;;;21.53;39.45
50770;BME280;36740;48.698;11.472;2024-03-22T12:31:46;97372.50;;;21.88;39.67
50770;BME280;36740;48.698;11.472;2024-03-22T12:34:12;97425.25;;;22.48;39.41
50770;BME280;36740;48.698;11.472;2024-03-22T12:40:30;97435.88;;;21.96;40.43
50770;BME280;36740;48.698;11.472;2024-03-22T12:43:37;97360.94;;;21.07;41.27
50770;BME280;36740;48.698;11.472;2024-03-22T12:52:22;97392.31;;;22.65;38.98
50770;BME280;36740;48.698;11.472;2024-03-22T12:55:40;97340.06;;;22.03;40.70
50770;BME280;36740;48.698;11.472;2024-03-22T13:01:33;97357.47;;;22.34;39.22
50770;BME280;36740;48.698;11.472;2024-03-22T13:04:02;97291.38;;;21.90;39.33
50770;BME280;36740;48.698;11.472;2024-03-22T13:06:49;97299.97;;;22.71;38.35
50770;BME280;36740;48.698;11.472;2024-03-22T13:09:14;97335.22;;;22.25;39.95
50770;BME280;36740;48.698;11.472;2024-03-22T13:11:41;97301.34;;;22.18;38.98
50770;BME280;36740;48.698;11.472;2024-03-22T13:22:27;97272.69;;;22.67;39.56
50770;BME280;36740;48.698;11.472;2024-03-22T13:25:38;97214.34;;;21.62;38.48
50770;BME280;36740;48.698;11.472;2024-03-22T13:29:04;97343.31;;;23.28;38.90
50770;BME280;36740;48.698;11.472;2024-03-22T13:57:21;97172.28;;;22.44;37.93
50770;BME280;36740;48.698;11.472;2024-03-22T14:00:26;97177.91;;;22.30;37.37
50770;BME280;36740;48.698;11.472;2024-03-22T14:03:13;97180.31;;;22.13;38.56
50770;BME280;36740;48.698;11.472;2024-03-22T14:09:42;97187.16;;;22.07;38.43
50770;BME280;36740;48.698;11.472;2024-03-22T14:12:23;97156.06;;;22.05;38.78
50770;BME280;36740;48.698;11.472;2024-03-22T14:14:50;97152.22;;;22.57;37.96
50770;BME280;36740;48.698;11.472;2024-03-22T14:17:20;97143.16;;;22.71;37.52
50770;BME280;36740;48.698;11.472;2024-03-22T14:19:51;97128.09;;;21.94;38.43
50770;BME280;36740;48.698;11.472;2024-03-22T14:25:58;97149.25;;;22.53;37.93
50770;BME280;36740;48.698;11.472;2024-03-22T14:28:50;97126.38;;;22.37;38.94
50770;BME280;36740;48.698;11.472;2024-03-22T14:31:28;97198.69;;;22.97;38.65
50770;BME280;36740;48.698;11.472;2024-03-22T14:34:20;97117.09;;;22.41;38.80
50770;BME280;36740;48.698;11.472;2024-03-22T14:37:08;97106.13;;;22.32;39.87
50770;BME280;36740;48.698;11.472;2024-03-22T14:43:36;97166.47;;;22.24;39.28
50770;BME280;36740;48.698;11.472;2024-03-22T14:46:21;97066.91;;;21.34;39.45
50770;BME280;36740;48.698;11.472;2024-03-22T15:11:12;97049.91;;;24.46;33.52
50770;BME280;36740;48.698;11.472;2024-03-22T15:17:47;97093.06;;;24.09;34.22
50770;BME280;36740;48.698;11.472;2024-03-22T15:21:01;97061.22;;;23.48;34.46
50770;BME280;36740;48.698;11.472;2024-03-22T15:28:16;97017.13;;;23.40;34.55
50770;BME280;36740;48.698;11.472;2024-03-22T15:32:05;97009.78;;;23.95;34.10
50770;BME280;36740;48.698;11.472;2024-03-22T15:35:39;97081.88;;;25.50;31.86
50770;BME280;36740;48.698;11.472;2024-03-22T15:39:29;97067.59;;;24.68;33.90
50770;BME280;36740;48.698;11.472;2024-03-22T15:42:26;97058.63;;;24.35;33.55
50770;BME280;36740;48.698;11.472;2024-03-22T15:45:16;97046.13;;;23.79;33.66
50770;BME280;36740;48.698;11.472;2024-03-22T15:48:11;96949.75;;;23.18;33.33
50770;BME280;36740;48.698;11.472;2024-03-22T15:51:27;97008.44;;;23.80;35.00
50770;BME280;36740;48.698;11.472;2024-03-22T15:54:05;96990.50;;;23.43;34.93
50770;BME280;36740;48.698;11.472;2024-03-22T15:56:38;97001.88;;;23.78;34.45
50770;BME280;36740;48.698;11.472;2024-03-22T15:59:03;96995.41;;;23.28;35.39
50770;BME280;36740;48.698;11.472;2024-03-22T16:01:49;96991.41;;;23.78;34.67
50770;BME280;36740;48.698;11.472;2024-03-22T16:04:36;97022.59;;;23.67;35.76
50770;BME280;36740;48.698;11.472;2024-03-22T16:07:15;96969.66;;;22.49;37.62
50770;BME280;36740;48.698;11.472;2024-03-22T16:09:58;96969.13;;;23.34;37.08
50770;BME280;36740;48.698;11.472;2024-03-22T16:12:25;96983.84;;;23.24;36.68
50770;BME280;36740;48.698;11.472;2024-03-22T16:14:51;96988.91;;;22.24;38.30
50770;BME280;36740;48.698;11.472;2024-03-22T16:17:35;96953.03;;;22.19;38.79
50770;BME280;36740;48.698;11.472;2024-03-22T16:20:10;97001.13;;;22.89;38.25
50770;BME280;36740;48.698;11.472;2024-03-22T16:23:16;96933.19;;;22.30;38.22
50770;BME280;36740;48.698;11.472;2024-03-22T16:25:54;96938.59;;;22.17;38.31
50770;BME280;36740;48.698;11.472;2024-03-22T16:28:59;96934.56;;;22.44;38.66
50770;BME280;36740;48.698;11.472;2024-03-22T16:31:25;96928.16;;;22.17;39.20
50770;BME280;36740;48.698;11.472;2024-03-22T16:34:12;96923.38;;;22.14;39.30
50770;BME280;36740;48.698;11.472;2024-03-22T16:37:01;96976.69;;;22.36;39.30
50770;BME280;36740;48.698;11.472;2024-03-22T16:39:35;96950.56;;;21.82;39.25
50770;BME280;36740;48.698;11.472;2024-03-22T16:42:04;96967.19;;;21.69;40.03
50770;BME280;36740;48.698;11.472;2024-03-22T16:44:32;96919.75;;;21.61;40.25
50770;BME280;36740;48.698;11.472;2024-03-22T16:47:37;96912.84;;;20.87;42.11
50770;BME280;36740;48.698;11.472;2024-03-22T16:50:06;96928.41;;;21.43;41.07
50770;BME280;36740;48.698;11.472;2024-03-22T16:52:38;96980.34;;;21.44;41.30
50770;BME280;36740;48.698;11.472;2024-03-22T16:55:04;96948.53;;;20.61;42.79
50770;BME280;36740;48.698;11.472;2024-03-22T16:57:30;96934.00;;;20.29;43.01
50770;BME280;36740;48.698;11.472;2024-03-22T17:00:17;96899.59;;;20.45;41.86
50770;BME280;36740;48.698;11.472;2024-03-22T17:02:48;96893.47;;;20.39;41.95
50770;BME280;36740;48.698;11.472;2024-03-22T17:05:17;96910.00;;;21.07;41.28
50770;BME280;36740;48.698;11.472;2024-03-22T17:07:55;96910.22;;;20.69;42.48
50770;BME280;36740;48.698;11.472;2024-03-22T17:10:26;96948.44;;;20.93;42.13
50770;BME280;36740;48.698;11.472;2024-03-22T17:12:52;96891.63;;;20.65;41.76
50770;BME280;36740;48.698;11.472;2024-03-22T17:15:22;96890.72;;;20.34;42.23
50770;BME280;36740;48.698;11.472;2024-03-22T17:18:11;96913.56;;;20.94;42.13
50770;BME280;36740;48.698;11.472;2024-03-22T17:20:52;96907.16;;;20.90;42.27
50770;BME280;36740;48.698;11.472;2024-03-22T17:23:20;96907.09;;;20.16;44.09
50770;BME280;36740;48.698;11.472;2024-03-22T17:25:46;96932.66;;;20.19;43.77
50770;BME280;36740;48.698;11.472;2024-03-22T17:28:11;96907.19;;;20.47;43.24
50770;BME280;36740;48.698;11.472;2024-03-22T17:30:37;96924.38;;;19.79;45.03
50770;BME280;36740;48.698;11.472;2024-03-22T17:33:06;96858.09;;;19.18;44.33
50770;BME280;36740;48.698;11.472;2024-03-22T17:39:38;96885.28;;;19.54;43.25
50770;BME280;36740;48.698;11.472;2024-03-22T17:45:32;96871.03;;;18.66;45.49
50770;BME280;36740;48.698;11.472;2024-03-22T17:48:22;96910.06;;;19.18;45.20
50770;BME280;36740;48.698;11.472;2024-03-22T17:51:10;96893.69;;;19.56;45.19
50770;BME280;36740;48.698;11.472;2024-03-22T17:53:59;96903.63;;;19.97;43.99
50770;BME280;36740;48.698;11.472;2024-03-22T17:56:28;96928.31;;;20.13;43.64
50770;BME280;36740;48.698;11.472;2024-03-22T17:58:54;96893.31;;;19.84;42.77
50770;BME280;36740;48.698;11.472;2024-03-22T18:01:19;96919.44;;;19.96;43.68
50770;BME280;36740;48.698;11.472;2024-03-22T18:03:45;96885.50;;;19.84;42.58
50770;BME280;36740;48.698;11.472;2024-03-22T18:06:10;96916.09;;;19.05;44.62
50770;BME280;36740;48.698;11.472;2024-03-22T18:08:39;96898.72;;;19.05;44.97
50770;BME280;36740;48.698;11.472;2024-03-22T18:11:05;96876.53;;;17.97;47.96
50770;BME280;36740;48.698;11.472;2024-03-22T18:13:30;96887.38;;;18.93;45.00
50770;BME280;36740;48.698;11.472;2024-03-22T18:15:57;96921.28;;;17.31;49.82
50770;BME280;36740;48.698;11.472;2024-03-22T18:18:26;96864.59;;;16.66;50.69
50770;BME280;36740;48.698;11.472;2024-03-22T18:20:57;96899.94;;;16.17;52.73
50770;BME280;36740;48.698;11.472;2024-03-22T18:23:25;96854.31;;;16.10;53.38
50770;BME280;36740;48.698;11.472;2024-03-22T18:25:53;96868.19;;;16.65;52.33
50770;BME280;36740;48.698;11.472;2024-03-22T18:32:02;96846.13;;;15.78;52.94
50770;BME280;36740;48.698;11.472;2024-03-22T18:34:29;96853.31;;;15.61;53.85
50770;BME280;36740;48.698;11.472;2024-03-22T18:36:54;96841.22;;;15.25;54.32
50770;BME280;36740;48.698;11.472;2024-03-22T18:39:22;96906.75;;;15.60;55.34
50770;BME280;36740;48.698;11.472;2024-03-22T18:41:54;96848.47;;;15.15;56.07
50770;BME280;36740;48.698;11.472;2024-03-22T18:44:22;96915.91;;;15.78;55.13
50770;BME280;36740;48.698;11.472;2024-03-22T18:46:48;96860.47;;;15.22;57.09
50770;BME280;36740;48.698;11.472;2024-03-22T18:49:16;96907.72;;;15.38;57.00
50770;BME280;36740;48.698;11.472;2024-03-22T18:51:41;96884.34;;;15.09;57.74
50770;BME280;36740;48.698;11.472;2024-03-22T18:54:07;96869.72;;;14.95;58.90
50770;BME280;36740;48.698;11.472;2024-03-22T18:56:41;96869.59;;;15.03;60.74
50770;BME280;36740;48.698;11.472;2024-03-22T18:59:06;96874.66;;;15.11;58.72
50770;BME280;36740;48.698;11.472;2024-03-22T19:01:32;96850.63;;;14.96;59.16
50770;BME280;36740;48.698;11.472;2024-03-22T19:04:01;96848.91;;;15.18;58.96
50770;BME280;36740;48.698;11.472;2024-03-22T19:06:32;96919.38;;;15.34;59.17
50770;BME280;36740;48.698;11.472;2024-03-22T19:09:00;96850.91;;;14.86;59.60
50770;BME280;36740;48.698;11.472;2024-03-22T19:11:57;96875.03;;;14.93;60.11
50770;BME280;36740;48.698;11.472;2024-03-22T19:15:03;96959.81;;;15.41;60.98
50770;BME280;36740;48.698;11.472;2024-03-22T19:18:16;96909.00;;;15.27;61.61
50770;BME280;36740;48.698;11.472;2024-03-22T19:25:00;96978.69;;;15.42;64.55
50770;BME280;36740;48.698;11.472;2024-03-22T19:27:51;96983.25;;;16.13;63.20
50770;BME280;36740;48.698;11.472;2024-03-22T19:34:46;96940.53;;;15.22;63.10
50770;BME280;36740;48.698;11.472;2024-03-22T19:37:25;96862.53;;;14.61;63.25
50770;BME280;36740;48.698;11.472;2024-03-22T19:40:00;96868.88;;;14.50;64.06
50770;BME280;36740;48.698;11.472;2024-03-22T19:42:28;96855.28;;;14.26;64.68
50770;BME280;36740;48.698;11.472;2024-03-22T19:44:56;96870.75;;;14.56;65.29
50770;BME280;36740;48.698;11.472;2024-03-22T19:47:21;96894.53;;;15.33;61.17
50770;BME280;36740;48.698;11.472;2024-03-22T19:49:49;96902.44;;;14.80;63.00
50770;BME280;36740;48.698;11.472;2024-03-22T19:52:16;96849.66;;;14.08;65.21
50770;BME280;36740;48.698;11.472;2024-03-22T19:54:41;96837.91;;;14.05;64.82
50770;BME280;36740;48.698;11.472;2024-03-22T19:57:09;96883.28;;;14.29;65.99
50770;BME280;36740;48.698;11.472;2024-03-22T19:59:41;96854.22;;;14.35;64.98
50770;BME280;36740;48.698;11.472;2024-03-22T20:02:06;96858.25;;;14.68;64.30
50770;BME280;36740;48.698;11.472;2024-03-22T20:04:33;96891.38;;;15.16;62.03
50770;BME280;36740;48.698;11.472;2024-03-22T20:07:00;96827.81;;;14.63;62.33
50770;BME280;36740;48.698;11.472;2024-03-22T20:09:26;96952.59;;;15.73;65.94
50770;BME280;36740;48.698;11.472;2024-03-22T20:11:54;96885.66;;;17.80;56.83
50770;BME280;36740;48.698;11.472;2024-03-22T20:14:19;96934.19;;;18.53;54.31
50770;BME280;36740;48.698;11.472;2024-03-22T20:20:03;96853.19;;;15.11;63.25
50770;BME280;36740;48.698;11.472;2024-03-22T20:22:43;96873.91;;;15.18;66.66
50770;BME280;36740;48.698;11.472;2024-03-22T20:25:12;96944.09;;;17.56;62.24
50770;BME280;36740;48.698;11.472;2024-03-22T20:27:37;96906.59;;;15.25;65.98
50770;BME280;36740;48.698;11.472;2024-03-22T20:30:03;96894.47;;;17.79;60.09
50770;BME280;36740;48.698;11.472;2024-03-22T20:32:29;96894.97;;;17.34;60.03
50770;BME280;36740;48.698;11.472;2024-03-22T20:34:54;96878.44;;;15.74;61.98
50770;BME280;36740;48.698;11.472;2024-03-22T20:37:20;96836.84;;;15.04;62.96
